createdAt,value
2023-03-17T00:00:57.438Z,6.63
2023-03-17T00:01:57.634Z,6.63
2023-03-17T00:02:57.977Z,6.62
2023-03-17T00:03:58.459Z,6.62
2023-03-17T00:04:58.712Z,6.60
2023-03-17T00:05:59.069Z,6.62
2023-03-17T00:06:59.416Z,6.60
2023-03-17T00:07:59.777Z,6.60
2023-03-17T00:09:00.148Z,6.59
2023-03-17T00:10:00.503Z,6.59
2023-03-17T00:11:00.870Z,6.59
2023-03-17T00:12:01.231Z,6.62
2023-03-17T00:13:01.610Z,6.60
2023-03-17T00:14:01.954Z,6.59
2023-03-17T00:15:02.285Z,6.57
2023-03-17T00:16:02.733Z,6.59
2023-03-17T00:17:03.013Z,6.56
2023-03-17T00:18:03.360Z,6.56
2023-03-17T00:19:03.733Z,6.56
2023-03-17T00:20:04.059Z,6.56
2023-03-17T00:21:04.420Z,6.54
2023-03-17T00:22:04.776Z,6.52
2023-03-17T00:23:05.123Z,6.52
2023-03-17T00:24:05.575Z,6.52
2023-03-17T00:25:05.838Z,6.52
2023-03-17T00:26:06.197Z,6.51
2023-03-17T00:27:06.556Z,6.51
2023-03-17T00:28:06.925Z,6.48
2023-03-17T00:29:07.306Z,6.49
2023-03-17T00:30:07.623Z,6.46
2023-03-17T00:31:07.992Z,6.44
2023-03-17T00:32:08.352Z,6.39
2023-03-17T00:33:08.700Z,6.42
2023-03-17T00:34:09.078Z,6.38
2023-03-17T00:35:09.409Z,6.36
2023-03-17T00:36:09.752Z,6.36
2023-03-17T00:37:10.089Z,6.35
2023-03-17T00:38:10.447Z,6.35
2023-03-17T00:39:10.815Z,6.31
2023-03-17T00:40:11.204Z,6.30
2023-03-17T00:41:11.527Z,6.30
2023-03-17T00:42:11.882Z,6.28
2023-03-17T00:43:12.249Z,6.27
2023-03-17T00:44:12.645Z,6.26
2023-03-17T00:45:12.963Z,6.19
2023-03-17T00:46:13.413Z,6.22
2023-03-17T00:47:13.677Z,6.22
2023-03-17T00:48:14.043Z,6.22
2023-03-17T00:49:14.413Z,6.27
2023-03-17T00:50:14.742Z,6.31
2023-03-17T00:51:15.160Z,6.28
2023-03-17T00:52:15.437Z,6.24
2023-03-17T00:53:15.794Z,6.19
2023-03-17T00:54:16.194Z,6.17
2023-03-17T00:55:16.496Z,6.16
2023-03-17T00:56:16.869Z,6.17
2023-03-17T00:57:17.222Z,6.14
2023-03-17T00:58:17.582Z,6.14
2023-03-17T00:59:19.391Z,6.12
2023-03-17T01:00:18.301Z,6.09
2023-03-17T01:01:18.720Z,6.07
2023-03-17T01:02:19.032Z,6.07
2023-03-17T01:03:19.393Z,6.07
2023-03-17T01:04:19.746Z,6.08
2023-03-17T01:05:20.061Z,6.09
2023-03-17T01:06:20.420Z,6.08
2023-03-17T01:07:20.784Z,6.08
2023-03-17T01:08:21.156Z,6.07
2023-03-17T01:09:21.539Z,6.09
2023-03-17T01:10:21.864Z,6.08
2023-03-17T01:11:22.214Z,6.07
2023-03-17T01:12:22.572Z,6.04
2023-03-17T01:13:22.952Z,6.01
2023-03-17T01:14:23.312Z,5.97
2023-03-17T01:15:23.687Z,5.97
2023-03-17T01:16:24.050Z,5.93
2023-03-17T01:17:24.400Z,5.91
2023-03-17T01:18:24.842Z,5.89
2023-03-17T01:19:25.132Z,5.89
2023-03-17T01:20:25.461Z,5.87
2023-03-17T01:21:25.804Z,5.86
2023-03-17T01:22:26.176Z,5.84
2023-03-17T01:23:26.544Z,5.80
2023-03-17T01:24:26.939Z,5.79
2023-03-17T01:25:27.250Z,5.80
2023-03-17T01:26:27.615Z,5.76
2023-03-17T01:27:27.972Z,5.80
2023-03-17T01:28:28.370Z,5.84
2023-03-17T01:29:28.711Z,5.84
2023-03-17T01:30:29.455Z,5.83
2023-03-17T01:31:29.510Z,5.82
2023-03-17T01:32:29.805Z,5.82
2023-03-17T01:33:30.114Z,5.79
2023-03-17T01:34:30.492Z,5.73
2023-03-17T01:35:30.876Z,5.69
2023-03-17T01:36:31.163Z,5.71
2023-03-17T01:37:31.522Z,5.71
2023-03-17T01:38:31.877Z,5.73
2023-03-17T01:39:32.274Z,5.72
2023-03-17T01:40:33.024Z,5.72
2023-03-17T01:41:32.941Z,5.71
2023-03-17T01:42:33.311Z,5.71
2023-03-17T01:43:33.681Z,5.71
2023-03-17T01:44:34.051Z,5.71
2023-03-17T01:45:34.406Z,5.68
2023-03-17T01:46:34.740Z,5.68
2023-03-17T01:47:35.056Z,5.66
2023-03-17T01:48:35.415Z,5.66
2023-03-17T01:49:35.785Z,5.66
2023-03-17T01:50:36.103Z,5.68
2023-03-17T01:51:36.461Z,5.68
2023-03-17T01:52:36.828Z,5.68
2023-03-17T01:53:37.207Z,5.69
2023-03-17T01:54:37.565Z,5.69
2023-03-17T01:55:37.906Z,5.72
2023-03-17T01:56:38.234Z,5.69
2023-03-17T01:57:38.585Z,5.71
2023-03-17T01:58:38.950Z,5.73
2023-03-17T01:59:39.331Z,5.75
2023-03-17T02:00:39.784Z,5.76
2023-03-17T02:01:40.009Z,5.79
2023-03-17T02:02:40.373Z,5.76
2023-03-17T02:03:40.727Z,5.73
2023-03-17T02:04:41.107Z,5.72
2023-03-17T02:05:41.423Z,5.75
2023-03-17T02:06:55.038Z,5.76
2023-03-17T02:07:42.169Z,5.76
2023-03-17T02:08:42.483Z,5.76
2023-03-17T02:09:42.863Z,5.75
2023-03-17T02:10:43.226Z,5.75
2023-03-17T02:11:43.583Z,5.72
2023-03-17T02:12:43.947Z,5.71
2023-03-17T02:13:44.309Z,5.72
2023-03-17T02:14:44.688Z,5.73
2023-03-17T02:15:45.044Z,5.73
2023-03-17T02:16:45.472Z,5.80
2023-03-17T02:17:45.753Z,5.82
2023-03-17T02:18:46.119Z,5.86
2023-03-17T02:19:46.471Z,5.87
2023-03-17T02:20:46.874Z,5.83
2023-03-17T02:21:47.177Z,5.84
2023-03-17T02:22:47.528Z,5.86
2023-03-17T02:23:47.889Z,5.86
2023-03-17T02:24:48.287Z,5.87
2023-03-17T02:25:48.626Z,5.87
2023-03-17T02:26:48.999Z,5.87
2023-03-17T02:27:49.350Z,5.90
2023-03-17T02:28:49.708Z,5.89
2023-03-17T02:29:50.091Z,5.89
2023-03-17T02:30:50.432Z,5.93
2023-03-17T02:31:50.787Z,5.98
2023-03-17T02:32:51.197Z,6.01
2023-03-17T02:33:51.489Z,6.01
2023-03-17T02:34:51.881Z,6.04
2023-03-17T02:35:52.223Z,6.04
2023-03-17T02:36:52.683Z,6.04
2023-03-17T02:37:52.920Z,6.02
2023-03-17T02:38:53.290Z,6.05
2023-03-17T02:39:53.734Z,6.04
2023-03-17T02:40:53.977Z,6.02
2023-03-17T02:41:54.335Z,6.01
2023-03-17T02:42:54.696Z,6.02
2023-03-17T02:43:55.061Z,6.04
2023-03-17T02:44:55.428Z,6.07
2023-03-17T02:45:55.824Z,6.07
2023-03-17T02:46:56.148Z,6.05
2023-03-17T02:47:56.510Z,6.04
2023-03-17T02:48:56.876Z,6.02
2023-03-17T02:49:57.257Z,6.02
2023-03-17T02:50:57.575Z,6.04
2023-03-17T02:51:57.928Z,6.02
2023-03-17T02:52:58.290Z,6.04
2023-03-17T02:53:58.641Z,6.04
2023-03-17T02:54:59.020Z,6.05
2023-03-17T02:55:59.340Z,6.07
2023-03-17T02:56:59.696Z,6.08
2023-03-17T02:58:00.033Z,6.08
2023-03-17T02:59:00.467Z,6.07
2023-03-17T03:00:00.802Z,6.05
2023-03-17T03:01:01.170Z,6.04
2023-03-17T03:02:01.483Z,6.08
2023-03-17T03:03:01.848Z,6.09
2023-03-17T03:04:02.218Z,6.09
2023-03-17T03:05:02.600Z,6.11
2023-03-17T03:06:03.246Z,6.14
2023-03-17T03:07:03.296Z,6.14
2023-03-17T03:08:03.669Z,6.14
2023-03-17T03:09:04.025Z,6.14
2023-03-17T03:10:04.407Z,6.14
2023-03-17T03:11:04.722Z,6.14
2023-03-17T03:12:05.088Z,6.20
2023-03-17T03:13:05.453Z,6.22
2023-03-17T03:14:05.786Z,6.19
2023-03-17T03:15:06.168Z,6.19
2023-03-17T03:16:06.520Z,6.17
2023-03-17T03:17:06.856Z,6.19
2023-03-17T03:18:07.215Z,6.19
2023-03-17T03:19:07.576Z,6.20
2023-03-17T03:20:07.965Z,6.19
2023-03-17T03:21:08.295Z,6.16
2023-03-17T03:22:08.659Z,6.17
2023-03-17T03:23:09.013Z,6.16
2023-03-17T03:24:09.348Z,6.12
2023-03-17T03:25:09.772Z,6.14
2023-03-17T03:26:10.044Z,6.11
2023-03-17T03:27:10.408Z,6.12
2023-03-17T03:28:10.776Z,6.12
2023-03-17T03:29:11.180Z,6.12
2023-03-17T03:30:11.488Z,6.11
2023-03-17T03:31:11.833Z,6.07
2023-03-17T03:32:12.167Z,6.05
2023-03-17T03:33:12.525Z,6.08
2023-03-17T03:34:12.883Z,6.09
2023-03-17T03:35:13.255Z,6.08
2023-03-17T03:36:13.601Z,6.07
2023-03-17T03:37:13.969Z,6.05
2023-03-17T03:38:14.307Z,6.04
2023-03-17T03:39:14.696Z,6.05
2023-03-17T03:40:15.036Z,6.02
2023-03-17T03:41:15.387Z,6.02
2023-03-17T03:42:15.755Z,5.99
2023-03-17T03:43:22.861Z,5.99
2023-03-17T03:44:16.467Z,6.05
2023-03-17T03:45:16.843Z,6.07
2023-03-17T03:46:17.194Z,6.07
2023-03-17T03:47:17.513Z,6.05
2023-03-17T03:48:17.860Z,6.05
2023-03-17T03:49:18.208Z,6.04
2023-03-17T03:50:18.585Z,6.02
2023-03-17T03:51:18.904Z,5.99
2023-03-17T03:52:19.264Z,5.99
2023-03-17T03:53:19.623Z,5.99
2023-03-17T03:54:19.969Z,5.97
2023-03-17T03:55:20.351Z,5.99
2023-03-17T03:56:20.674Z,5.98
2023-03-17T03:57:21.013Z,5.94
2023-03-17T03:58:21.376Z,5.90
2023-03-17T03:59:21.743Z,5.91
2023-03-17T04:00:22.112Z,5.91
2023-03-17T04:01:22.439Z,5.89
2023-03-17T04:02:22.832Z,5.91
2023-03-17T04:03:23.153Z,5.94
2023-03-17T04:04:23.593Z,5.97
2023-03-17T04:05:23.927Z,5.97
2023-03-17T04:06:24.221Z,5.98
2023-03-17T04:07:24.600Z,5.97
2023-03-17T04:08:24.982Z,5.91
2023-03-17T04:09:25.297Z,5.93
2023-03-17T04:10:25.655Z,5.93
2023-03-17T04:11:26.022Z,5.91
2023-03-17T04:12:26.375Z,5.90
2023-03-17T04:13:26.738Z,5.89
2023-03-17T04:14:27.086Z,5.93
2023-03-17T04:15:27.464Z,5.91
2023-03-17T04:16:27.875Z,5.90
2023-03-17T04:17:28.152Z,5.91
2023-03-17T04:18:28.520Z,5.91
2023-03-17T04:19:28.893Z,5.90
2023-03-17T04:20:29.664Z,5.89
2023-03-17T04:21:29.589Z,5.89
2023-03-17T04:22:29.913Z,5.89
2023-03-17T04:23:30.287Z,5.90
2023-03-17T04:24:30.646Z,5.90
2023-03-17T04:25:31.099Z,5.87
2023-03-17T04:26:31.370Z,5.84
2023-03-17T04:27:31.685Z,5.83
2023-03-17T04:28:32.057Z,5.80
2023-03-17T04:29:32.415Z,5.76
2023-03-17T04:30:33.199Z,5.72
2023-03-17T04:31:33.170Z,5.71
2023-03-17T04:32:33.551Z,5.69
2023-03-17T04:33:33.859Z,5.68
2023-03-17T04:34:34.213Z,5.65
2023-03-17T04:35:34.707Z,5.62
2023-03-17T04:36:34.918Z,5.62
2023-03-17T04:37:35.273Z,5.68
2023-03-17T04:38:35.642Z,5.65
2023-03-17T04:39:36.008Z,5.65
2023-03-17T04:40:36.374Z,5.65
2023-03-17T04:41:36.704Z,5.65
2023-03-17T04:42:37.057Z,5.64
2023-03-17T04:43:37.416Z,5.64
2023-03-17T04:44:37.781Z,5.62
2023-03-17T04:45:38.256Z,5.62
2023-03-17T04:46:38.488Z,5.65
2023-03-17T04:47:38.851Z,5.62
2023-03-17T04:48:39.200Z,5.62
2023-03-17T04:49:39.581Z,5.64
2023-03-17T04:50:39.943Z,5.62
2023-03-17T04:51:40.256Z,5.62
2023-03-17T04:52:40.642Z,5.59
2023-03-17T04:53:40.985Z,5.53
2023-03-17T04:54:41.347Z,5.54
2023-03-17T04:55:41.725Z,5.48
2023-03-17T04:56:42.056Z,5.44
2023-03-17T04:57:42.396Z,5.39
2023-03-17T04:58:42.767Z,5.38
2023-03-17T04:59:43.160Z,5.33
2023-03-17T05:00:43.548Z,5.32
2023-03-17T05:01:43.735Z,5.32
2023-03-17T05:02:44.035Z,5.29
2023-03-17T05:03:44.329Z,5.29
2023-03-17T05:04:44.612Z,5.30
2023-03-17T05:05:45.383Z,5.32
2023-03-17T05:06:45.175Z,5.32
2023-03-17T05:07:45.448Z,5.32
2023-03-17T05:08:45.745Z,5.30
2023-03-17T05:09:46.045Z,5.29
2023-03-17T05:10:46.345Z,5.36
2023-03-17T05:11:46.623Z,5.35
2023-03-17T05:12:46.792Z,5.35
2023-03-17T05:13:47.080Z,5.35
2023-03-17T05:14:47.384Z,5.35
2023-03-17T05:15:47.546Z,5.30
2023-03-17T05:16:47.901Z,5.33
2023-03-17T05:17:47.995Z,5.39
2023-03-17T05:18:48.287Z,5.43
2023-03-17T05:19:48.587Z,5.43
2023-03-17T05:20:48.887Z,5.41
2023-03-17T05:21:49.160Z,5.43
2023-03-17T05:22:49.458Z,5.44
2023-03-17T05:23:49.717Z,5.46
2023-03-17T05:24:50.028Z,5.47
2023-03-17T05:25:50.344Z,5.47
2023-03-17T05:26:50.446Z,5.50
2023-03-17T05:27:50.750Z,5.50
2023-03-17T05:28:51.018Z,5.53
2023-03-17T05:29:51.220Z,5.53
2023-03-17T05:30:51.424Z,5.53
2023-03-17T05:31:51.536Z,5.54
2023-03-17T05:32:51.845Z,5.53
2023-03-17T05:33:51.988Z,5.54
2023-03-17T05:34:52.178Z,5.54
2023-03-17T05:35:52.492Z,5.54
2023-03-17T05:36:52.488Z,5.53
2023-03-17T05:37:52.653Z,5.54
2023-03-17T05:38:52.825Z,5.54
2023-03-17T05:39:52.995Z,5.51
2023-03-17T05:40:53.203Z,5.50
2023-03-17T05:41:53.450Z,5.47
2023-03-17T05:42:53.669Z,5.48
2023-03-17T05:43:53.802Z,5.46
2023-03-17T05:44:53.990Z,5.50
2023-03-17T05:45:54.190Z,5.51
2023-03-17T05:46:54.338Z,5.50
2023-03-17T05:47:54.544Z,5.48
2023-03-17T05:48:54.694Z,5.47
2023-03-17T05:49:54.898Z,5.46
2023-03-17T05:50:55.067Z,5.47
2023-03-17T05:51:55.223Z,5.47
2023-03-17T05:52:55.397Z,5.46
2023-03-17T05:53:55.601Z,5.46
2023-03-17T05:54:55.758Z,5.50
2023-03-17T05:55:55.933Z,5.53
2023-03-17T05:56:56.097Z,5.53
2023-03-17T05:57:56.285Z,5.53
2023-03-17T05:58:56.475Z,5.56
2023-03-17T05:59:56.627Z,5.57
2023-03-17T06:00:56.850Z,5.59
2023-03-17T06:01:57.339Z,5.59
2023-03-17T06:02:57.272Z,5.62
2023-03-17T06:03:57.493Z,5.64
2023-03-17T06:04:57.617Z,5.68
2023-03-17T06:05:57.817Z,5.71
2023-03-17T06:06:57.964Z,5.72
2023-03-17T06:07:58.145Z,5.71
2023-03-17T06:08:58.439Z,5.72
2023-03-17T06:09:58.628Z,5.73
2023-03-17T06:10:58.821Z,5.73
2023-03-17T06:11:58.985Z,5.73
2023-03-17T06:12:59.161Z,5.76
2023-03-17T06:13:59.336Z,5.79
2023-03-17T06:14:59.521Z,5.82
2023-03-17T06:15:59.785Z,5.83
2023-03-17T06:16:59.880Z,5.83
2023-03-17T06:18:00.175Z,5.87
2023-03-17T06:19:00.344Z,5.86
2023-03-17T06:20:00.515Z,5.87
2023-03-17T06:21:00.845Z,5.89
2023-03-17T06:22:01.016Z,5.89
2023-03-17T06:23:04.879Z,5.91
2023-03-17T06:24:01.497Z,5.93
2023-03-17T06:25:01.656Z,5.97
2023-03-17T06:26:01.927Z,5.98
2023-03-17T06:27:02.160Z,6.01
2023-03-17T06:28:02.789Z,6.04
2023-03-17T06:29:02.662Z,6.05
2023-03-17T06:30:02.811Z,6.08
2023-03-17T06:31:05.278Z,6.12
2023-03-17T06:32:18.838Z,6.16
2023-03-17T06:33:03.416Z,6.20
2023-03-17T06:34:03.575Z,6.26
2023-03-17T06:35:03.721Z,6.27
2023-03-17T06:36:04.017Z,6.31
2023-03-17T06:37:04.211Z,6.33
2023-03-17T06:38:04.398Z,6.36
2023-03-17T06:39:04.590Z,6.39
2023-03-17T06:40:04.797Z,6.41
2023-03-17T06:41:05.098Z,6.44
2023-03-17T06:42:06.311Z,6.48
2023-03-17T06:43:05.440Z,6.52
2023-03-17T06:44:05.738Z,6.56
2023-03-17T06:45:06.032Z,6.60
2023-03-17T06:46:06.347Z,6.64
2023-03-17T06:47:06.515Z,6.70
2023-03-17T06:48:06.702Z,6.75
2023-03-17T06:49:06.896Z,6.79
2023-03-17T06:50:07.077Z,6.85
2023-03-17T06:51:07.390Z,6.92
2023-03-17T06:52:07.553Z,6.99
2023-03-17T06:53:07.720Z,7.05
2023-03-17T06:54:08.031Z,7.11
2023-03-17T06:55:08.199Z,7.18
2023-03-17T06:56:20.070Z,7.24
2023-03-17T06:57:08.700Z,7.31
2023-03-17T06:58:08.886Z,7.36
2023-03-17T06:59:09.183Z,7.42
2023-03-17T07:00:09.387Z,7.47
2023-03-17T07:01:09.692Z,7.48
2023-03-17T07:02:10.033Z,7.54
2023-03-17T07:03:10.153Z,7.58
2023-03-17T07:04:10.519Z,7.63
2023-03-17T07:05:10.745Z,7.69
2023-03-17T07:06:10.959Z,7.72
2023-03-17T07:07:11.117Z,7.76
2023-03-17T07:08:11.312Z,7.76
2023-03-17T07:09:11.601Z,7.83
2023-03-17T07:10:11.790Z,7.85
2023-03-17T07:11:12.006Z,7.88
2023-03-17T07:12:12.157Z,7.94
2023-03-17T07:13:12.374Z,7.95
2023-03-17T07:14:12.665Z,7.98
2023-03-17T07:15:12.989Z,8.00
2023-03-17T07:16:13.214Z,8.03
2023-03-17T07:17:13.316Z,8.03
2023-03-17T07:18:13.606Z,8.06
2023-03-17T07:19:13.820Z,8.10
2023-03-17T07:20:14.092Z,8.15
2023-03-17T07:21:14.302Z,8.19
2023-03-17T07:22:14.585Z,8.26
2023-03-17T07:23:14.890Z,8.28
2023-03-17T07:24:15.215Z,8.31
2023-03-17T07:25:15.377Z,8.36
2023-03-17T07:26:15.597Z,8.38
2023-03-17T07:27:15.851Z,8.49
2023-03-17T07:28:16.100Z,8.53
2023-03-17T07:29:16.314Z,8.58
2023-03-17T07:30:16.559Z,8.61
2023-03-17T07:31:16.798Z,8.64
2023-03-17T07:32:16.921Z,8.60
2023-03-17T07:33:17.096Z,8.61
2023-03-17T07:34:17.388Z,8.66
2023-03-17T07:35:17.629Z,8.67
2023-03-17T07:36:17.919Z,8.78
2023-03-17T07:37:18.221Z,8.81
2023-03-17T07:38:18.374Z,8.79
2023-03-17T07:39:18.509Z,8.78
2023-03-17T07:40:18.797Z,8.78
2023-03-17T07:41:19.048Z,8.76
2023-03-17T07:42:19.201Z,8.78
2023-03-17T07:43:19.376Z,8.76
2023-03-17T07:44:19.537Z,8.74
2023-03-17T07:45:19.738Z,8.73
2023-03-17T07:46:20.098Z,8.73
2023-03-17T07:47:20.204Z,8.78
2023-03-17T07:48:20.396Z,8.74
2023-03-17T07:49:30.757Z,8.76
2023-03-17T07:50:20.883Z,8.79
2023-03-17T07:51:21.679Z,8.85
2023-03-17T07:52:21.383Z,8.88
2023-03-17T07:53:21.692Z,8.95
2023-03-17T07:54:21.847Z,9.00
2023-03-17T07:55:22.034Z,9.06
2023-03-17T07:56:22.258Z,9.13
2023-03-17T07:57:22.534Z,9.22
2023-03-17T07:58:22.605Z,9.28
2023-03-17T07:59:22.788Z,9.36
2023-03-17T08:00:23.064Z,9.44
2023-03-17T08:01:23.385Z,9.56
2023-03-17T08:02:23.616Z,9.64
2023-03-17T08:03:23.703Z,9.74
2023-03-17T08:04:23.899Z,9.80
2023-03-17T08:05:24.061Z,9.84
2023-03-17T08:06:24.236Z,9.86
2023-03-17T08:07:24.434Z,9.91
2023-03-17T08:08:24.577Z,9.97
2023-03-17T08:09:24.950Z,9.92
2023-03-17T08:10:25.089Z,9.91
2023-03-17T08:11:25.675Z,9.92
2023-03-17T08:12:25.560Z,9.97
2023-03-17T08:13:25.739Z,10.01
2023-03-17T08:14:25.909Z,10.05
2023-03-17T08:15:26.097Z,10.13
2023-03-17T08:16:26.308Z,10.19
2023-03-17T08:17:26.491Z,10.28
2023-03-17T08:18:26.667Z,10.37
2023-03-17T08:19:26.868Z,10.38
2023-03-17T08:20:27.058Z,10.37
2023-03-17T08:21:27.261Z,10.41
2023-03-17T08:22:27.446Z,10.46
2023-03-17T08:23:27.603Z,10.54
2023-03-17T08:24:27.764Z,10.60
2023-03-17T08:25:27.969Z,10.68
2023-03-17T08:26:28.146Z,10.72
2023-03-17T08:27:28.289Z,10.72
2023-03-17T08:28:28.477Z,10.84
2023-03-17T08:29:28.634Z,10.90
2023-03-17T08:30:31.438Z,10.81
2023-03-17T08:31:29.110Z,10.82
2023-03-17T08:32:29.376Z,10.92
2023-03-17T08:33:29.410Z,10.96
2023-03-17T08:34:29.561Z,11.07
2023-03-17T08:35:30.152Z,11.14
2023-03-17T08:36:29.949Z,11.22
2023-03-17T08:37:30.141Z,11.25
2023-03-17T08:38:30.293Z,11.25
2023-03-17T08:39:30.466Z,11.23
2023-03-17T08:40:31.168Z,11.22
2023-03-17T08:41:30.866Z,11.18
2023-03-17T08:42:31.049Z,11.30
2023-03-17T08:43:31.215Z,11.40
2023-03-17T08:44:31.396Z,11.33
2023-03-17T08:45:31.935Z,11.44
2023-03-17T08:46:31.896Z,11.50
2023-03-17T08:47:31.961Z,11.60
2023-03-17T08:48:32.146Z,11.66
2023-03-17T08:49:32.314Z,11.73
2023-03-17T08:50:32.843Z,11.86
2023-03-17T08:51:32.700Z,11.90
2023-03-17T08:52:32.899Z,12.00
2023-03-17T08:53:33.050Z,12.06
2023-03-17T08:54:33.230Z,12.02
2023-03-17T08:55:33.398Z,12.15
2023-03-17T08:56:33.613Z,12.15
2023-03-17T08:57:33.771Z,12.21
2023-03-17T08:58:33.951Z,12.35
2023-03-17T08:59:34.134Z,12.36
2023-03-17T09:00:34.340Z,12.42
2023-03-17T09:01:34.649Z,12.47
2023-03-17T09:02:34.744Z,12.35
2023-03-17T09:03:34.873Z,12.35
2023-03-17T09:04:35.068Z,12.31
2023-03-17T09:05:38.190Z,12.37
2023-03-17T09:06:35.438Z,12.43
2023-03-17T09:07:35.676Z,12.58
2023-03-17T09:08:35.798Z,12.53
2023-03-17T09:09:35.971Z,12.61
2023-03-17T09:10:36.160Z,12.64
2023-03-17T09:11:36.339Z,12.72
2023-03-17T09:12:36.507Z,12.73
2023-03-17T09:13:36.700Z,12.70
2023-03-17T09:14:43.535Z,12.70
2023-03-17T09:15:37.112Z,12.70
2023-03-17T09:16:37.269Z,12.67
2023-03-17T09:17:37.446Z,12.58
2023-03-17T09:18:37.643Z,12.46
2023-03-17T09:19:37.823Z,12.46
2023-03-17T09:20:38.019Z,12.49
2023-03-17T09:21:38.252Z,12.45
2023-03-17T09:22:38.378Z,12.47
2023-03-17T09:23:38.553Z,12.47
2023-03-17T09:24:38.745Z,12.57
2023-03-17T09:25:38.920Z,12.50
2023-03-17T09:26:39.171Z,12.58
2023-03-17T09:27:39.286Z,12.70
2023-03-17T09:28:39.474Z,12.87
2023-03-17T09:29:39.653Z,13.04
2023-03-17T09:30:39.840Z,13.09
2023-03-17T09:31:40.121Z,12.94
2023-03-17T09:32:40.277Z,12.94
2023-03-17T09:33:40.476Z,12.85
2023-03-17T09:34:40.676Z,12.90
2023-03-17T09:35:40.798Z,12.97
2023-03-17T09:36:40.974Z,12.90
2023-03-17T09:37:41.156Z,13.01
2023-03-17T09:38:41.334Z,13.05
2023-03-17T09:39:41.509Z,13.16
2023-03-17T09:40:41.684Z,13.27
2023-03-17T09:41:41.884Z,13.37
2023-03-17T09:42:42.089Z,13.49
2023-03-17T09:43:42.263Z,13.19
2023-03-17T09:44:42.428Z,13.20
2023-03-17T09:45:43.762Z,13.33
2023-03-17T09:46:42.884Z,13.38
2023-03-17T09:47:43.107Z,13.44
2023-03-17T09:48:43.214Z,13.28
2023-03-17T09:49:43.380Z,13.38
2023-03-17T09:50:43.551Z,13.47
2023-03-17T09:51:43.760Z,13.68
2023-03-17T09:52:43.944Z,13.95
2023-03-17T09:53:44.134Z,13.89
2023-03-17T09:54:44.344Z,13.79
2023-03-17T09:55:44.521Z,13.92
2023-03-17T09:56:44.712Z,13.93
2023-03-17T09:57:44.896Z,13.89
2023-03-17T09:58:45.084Z,13.78
2023-03-17T09:59:45.261Z,13.71
2023-03-17T10:00:45.444Z,13.56
2023-03-17T10:01:45.656Z,13.30
2023-03-17T10:02:45.804Z,13.15
2023-03-17T10:03:45.978Z,13.08
2023-03-17T10:04:46.235Z,13.00
2023-03-17T10:05:46.355Z,12.95
2023-03-17T10:06:46.539Z,12.91
2023-03-17T10:07:46.728Z,12.91
2023-03-17T10:08:46.868Z,12.90
2023-03-17T10:09:47.070Z,12.91
2023-03-17T10:10:47.287Z,12.95
2023-03-17T10:11:47.451Z,13.01
2023-03-17T10:12:47.650Z,13.05
2023-03-17T10:13:47.836Z,13.08
2023-03-17T10:14:50.706Z,13.16
2023-03-17T10:15:48.256Z,13.22
2023-03-17T10:16:48.433Z,13.15
2023-03-17T10:17:48.614Z,13.12
2023-03-17T10:18:48.814Z,13.05
2023-03-17T10:19:49.033Z,12.98
2023-03-17T10:20:51.459Z,12.87
2023-03-17T10:21:49.395Z,12.97
2023-03-17T10:22:49.584Z,13.00
2023-03-17T10:23:49.769Z,13.03
2023-03-17T10:24:49.967Z,13.05
2023-03-17T10:25:50.167Z,13.04
2023-03-17T10:26:50.403Z,13.08
2023-03-17T10:27:50.541Z,13.16
2023-03-17T10:28:50.725Z,13.28
2023-03-17T10:29:50.921Z,13.35
2023-03-17T10:30:51.123Z,13.35
2023-03-17T10:31:51.410Z,13.46
2023-03-17T10:32:51.507Z,13.47
2023-03-17T10:33:51.704Z,13.56
2023-03-17T10:34:51.910Z,13.44
2023-03-17T10:35:52.093Z,13.31
2023-03-17T10:36:52.308Z,13.44
2023-03-17T10:38:04.397Z,13.59
2023-03-17T10:38:52.690Z,13.74
2023-03-17T10:39:52.873Z,13.96
2023-03-17T10:40:53.060Z,14.26
2023-03-17T10:41:53.351Z,14.37
2023-03-17T10:42:53.497Z,14.50
2023-03-17T10:43:53.681Z,14.54
2023-03-17T10:44:53.878Z,14.53
2023-03-17T10:45:54.060Z,14.63
2023-03-17T10:46:54.331Z,14.73
2023-03-17T10:47:54.467Z,14.43
2023-03-17T10:48:54.668Z,14.33
2023-03-17T10:49:54.846Z,14.33
2023-03-17T10:50:55.056Z,14.40
2023-03-17T10:51:55.285Z,14.37
2023-03-17T10:52:55.457Z,14.43
2023-03-17T10:53:55.654Z,14.45
2023-03-17T10:54:55.854Z,14.40
2023-03-17T10:55:56.045Z,14.44
2023-03-17T10:56:58.904Z,14.35
2023-03-17T10:57:56.446Z,14.50
2023-03-17T10:58:56.642Z,14.59
2023-03-17T10:59:56.834Z,14.68
2023-03-17T11:00:57.206Z,14.72
2023-03-17T11:01:57.231Z,14.66
2023-03-17T11:02:57.436Z,14.72
2023-03-17T11:03:57.722Z,14.73
2023-03-17T11:04:57.790Z,14.84
2023-03-17T11:05:57.978Z,14.72
2023-03-17T11:06:58.194Z,14.91
2023-03-17T11:07:58.362Z,14.94
2023-03-17T11:08:58.579Z,14.91
2023-03-17T11:09:58.777Z,14.69
2023-03-17T11:10:58.963Z,14.77
2023-03-17T11:11:59.187Z,14.88
2023-03-17T11:12:59.394Z,15.15
2023-03-17T11:13:59.562Z,15.35
2023-03-17T11:14:59.761Z,15.37
2023-03-17T11:15:59.966Z,15.40
2023-03-17T11:17:00.153Z,15.51
2023-03-17T11:18:00.396Z,15.55
2023-03-17T11:19:00.519Z,15.62
2023-03-17T11:20:00.714Z,15.62
2023-03-17T11:21:00.892Z,15.52
2023-03-17T11:22:01.120Z,15.62
2023-03-17T11:23:01.277Z,15.59
2023-03-17T11:24:01.453Z,15.62
2023-03-17T11:25:01.649Z,15.73
2023-03-17T11:26:01.851Z,15.70
2023-03-17T11:27:02.073Z,15.62
2023-03-17T11:28:02.233Z,15.65
2023-03-17T11:29:02.439Z,15.55
2023-03-17T11:30:02.629Z,15.67
2023-03-17T11:31:02.815Z,15.70
2023-03-17T11:32:03.127Z,15.67
2023-03-17T11:33:03.245Z,15.58
2023-03-17T11:34:03.391Z,15.68
2023-03-17T11:35:03.590Z,15.95
2023-03-17T11:36:03.869Z,16.01
2023-03-17T11:37:04.021Z,15.97
2023-03-17T11:38:04.181Z,16.05
2023-03-17T11:39:04.365Z,16.13
2023-03-17T11:40:04.592Z,16.23
2023-03-17T11:41:04.766Z,16.32
2023-03-17T11:42:04.975Z,16.35
2023-03-17T11:43:05.155Z,16.46
2023-03-17T11:44:05.347Z,16.17
2023-03-17T11:45:05.583Z,16.15
2023-03-17T11:46:05.826Z,16.09
2023-03-17T11:47:06.064Z,16.31
2023-03-17T11:48:06.100Z,16.08
2023-03-17T11:49:06.284Z,16.24
2023-03-17T11:50:06.472Z,16.26
2023-03-17T11:51:06.699Z,16.32
2023-03-17T11:52:06.906Z,16.35
2023-03-17T11:53:07.083Z,16.51
2023-03-17T11:54:07.277Z,16.60
2023-03-17T11:55:07.469Z,16.60
2023-03-17T11:56:07.669Z,16.72
2023-03-17T11:57:07.862Z,16.87
2023-03-17T11:58:08.051Z,17.01
2023-03-17T11:59:08.256Z,16.74
2023-03-17T12:00:08.445Z,16.69
2023-03-17T12:01:08.631Z,16.87
2023-03-17T12:02:08.822Z,16.99
2023-03-17T12:03:09.087Z,16.90
2023-03-17T12:04:09.387Z,16.83
2023-03-17T12:05:09.437Z,16.69
2023-03-17T12:06:09.664Z,16.78
2023-03-17T12:07:09.875Z,16.79
2023-03-17T12:08:10.066Z,17.06
2023-03-17T12:09:10.261Z,16.96
2023-03-17T12:10:10.470Z,16.83
2023-03-17T12:11:10.697Z,16.97
2023-03-17T12:12:10.869Z,16.99
2023-03-17T12:13:11.063Z,17.11
2023-03-17T12:14:11.252Z,17.16
2023-03-17T12:15:11.432Z,17.19
2023-03-17T12:16:11.658Z,17.12
2023-03-17T12:17:11.832Z,16.91
2023-03-17T12:18:12.025Z,16.76
2023-03-17T12:19:12.216Z,16.71
2023-03-17T12:20:12.390Z,16.64
2023-03-17T12:21:12.572Z,16.81
2023-03-17T12:22:12.784Z,16.84
2023-03-17T12:23:12.939Z,16.97
2023-03-17T12:24:13.123Z,16.81
2023-03-17T12:25:13.319Z,17.02
2023-03-17T12:26:13.508Z,17.08
2023-03-17T12:27:13.740Z,17.29
2023-03-17T12:28:13.896Z,17.34
2023-03-17T12:29:14.090Z,17.45
2023-03-17T12:30:14.364Z,17.59
2023-03-17T12:31:14.529Z,17.34
2023-03-17T12:32:14.681Z,17.46
2023-03-17T12:33:14.870Z,17.51
2023-03-17T12:34:15.058Z,17.45
2023-03-17T12:35:15.257Z,17.49
2023-03-17T12:36:15.528Z,17.39
2023-03-17T12:37:15.681Z,17.46
2023-03-17T12:38:15.872Z,17.34
2023-03-17T12:39:16.084Z,17.34
2023-03-17T12:40:16.302Z,17.45
2023-03-17T12:41:16.510Z,17.64
2023-03-17T12:42:16.729Z,17.57
2023-03-17T12:43:16.922Z,17.41
2023-03-17T12:44:17.116Z,17.46
2023-03-17T12:45:17.337Z,17.49
2023-03-17T12:46:17.555Z,17.71
2023-03-17T12:47:17.721Z,17.79
2023-03-17T12:48:17.932Z,18.07
2023-03-17T12:49:18.118Z,18.28
2023-03-17T12:50:18.312Z,18.28
2023-03-17T12:51:18.500Z,18.08
2023-03-17T12:52:18.698Z,18.31
2023-03-17T12:53:18.885Z,18.13
2023-03-17T12:54:19.078Z,18.08
2023-03-17T12:55:19.274Z,18.26
2023-03-17T12:56:19.475Z,18.05
2023-03-17T12:57:19.703Z,18.04
2023-03-17T12:58:19.887Z,17.98
2023-03-17T12:59:20.075Z,18.05
2023-03-17T13:00:20.258Z,18.11
2023-03-17T13:01:20.526Z,17.97
2023-03-17T13:02:20.712Z,17.97
2023-03-17T13:03:20.983Z,18.15
2023-03-17T13:04:21.113Z,18.28
2023-03-17T13:05:21.310Z,18.20
2023-03-17T13:06:21.505Z,18.20
2023-03-17T13:07:21.738Z,18.49
2023-03-17T13:08:21.926Z,18.10
2023-03-17T13:09:22.121Z,18.28
2023-03-17T13:10:22.307Z,18.40
2023-03-17T13:11:22.493Z,18.53
2023-03-17T13:12:22.740Z,18.60